Stations météo

réclame
Mon MeteoGroup
East malling, Grande-Bretagne (99008): Température de l'air & dewpoint: 18.11.2020 04:00:00 - 24.11.2020 04:00:00 (GMT)East malling, Grande-Bretagne (99008): Température de l'air -20cm: 18.11.2020 04:00:00 - 24.11.2020 04:00:00 (GMT)East malling, Grande-Bretagne (99008): Vitesse du vent & gusts: 18.11.2020 04:00:00 - 24.11.2020 04:00:00 (GMT)East malling, Grande-Bretagne (99008): Direction du vent: 18.11.2020 04:00:00 - 24.11.2020 04:00:00 (GMT)East malling, Grande-Bretagne (99008): reduced air pressure: 18.11.2020 04:00:00 - 24.11.2020 04:00:00 (GMT)East malling, Grande-Bretagne (99008): Ensoleillement: 18.11.2020 04:00:00 - 24.11.2020 04:00:00 (GMT)East malling, Grande-Bretagne (99008): Quantités de précipitations: 18.11.2020 04:00:00 - 24.11.2020 04:00:00 (GMT)
Date & Time tt [°C] td [°C] tt -20cm [°C] ff [km/h] ff [knt] fx [km/h] fx [knt] dd ppp [hPa] sd [min] rr [mm]
24.11.2020 04:00:00 10,1 9,2 - 8 4 - - SSW 1021,8 0 -
24.11.2020 03:00:00 9,5 8,4 - 8 4 - - S 1022,4 0 0,0
24.11.2020 02:00:00 9,8 8,6 - 9 5 - - S 1023,0 0 0,0
24.11.2020 01:00:00 8,8 8,0 - 5 3 - - S 1023,8 0 0,0
24.11.2020 00:00:00 9,1 7,6 - 8 4 - - S 1024,3 - 0,0
23.11.2020 23:00:00 9,7 8,1 - 9 5 - - S 1024,6 0 0,0
23.11.2020 22:00:00 8,9 7,3 - 9 5 - - S 1025,0 0 0,0
23.11.2020 21:00:00 9,0 7,3 - 13 7 - - S 1024,9 0 0,0
23.11.2020 20:00:00 8,3 6,8 - 11 6 - - S 1025,7 0 0,0
23.11.2020 19:00:00 8,0 6,5 - 8 4 - - S 1026,1 0 0,0
23.11.2020 18:00:00 8,0 6,3 - 11 6 - - S 1026,4 0 0,0
23.11.2020 17:00:00 8,0 5,5 - 8 4 - - S 1026,7 0 0,0
23.11.2020 16:00:00 7,5 4,6 - 4 2 - - WSW 1026,8 0 0,0
23.11.2020 15:00:00 9,5 5,8 - 5 3 - - S 1026,8 0 0,0
23.11.2020 14:00:00 9,4 5,2 - 8 4 - - S 1027,2 0 0,0
23.11.2020 13:00:00 9,0 5,4 - 5 3 - - SSW 1027,8 0 0,0
23.11.2020 12:00:00 7,8 4,6 - 4 2 - - SW 1028,6 36 0,0
23.11.2020 11:00:00 7,9 5,6 - 5 3 - - S 1028,8 60 0,0
23.11.2020 10:00:00 4,3 4,2 - 2 1 - - N 1029,5 30 0,0
23.11.2020 09:00:00 2,7 2,7 8,7 0 0 - - N 1029,3 18 0,0
23.11.2020 08:00:00 -0,1 -0,3 - 4 2 - - WSW 1028,7 0 0,0
23.11.2020 07:00:00 0,0 -0,2 - 2 1 - - W 1028,5 0 0,0
23.11.2020 06:00:00 0,4 0,2 - 0 0 - - N 1028,3 0 0,0
23.11.2020 05:00:00 0,7 0,5 - 4 2 - - SW 1028,3 0 0,0
23.11.2020 04:00:00 0,6 0,3 - 2 1 - - NNE 1028,2 0 0,0
23.11.2020 03:00:00 0,9 0,4 - 0 0 - - N 1028,1 0 0,0
23.11.2020 02:00:00 1,6 1,0 - 2 1 - - E 1028,0 0 0,0
23.11.2020 01:00:00 3,3 2,9 - 4 2 - - SSW 1028,2 0 0,0
23.11.2020 00:00:00 4,2 3,8 - 2 1 - - SSW 1028,2 - 0,0
22.11.2020 23:00:00 3,8 3,1 - 4 2 - - E 1028,0 0 0,0
22.11.2020 22:00:00 4,9 3,6 - 2 1 - - W 1027,9 0 0,0
22.11.2020 21:00:00 7,0 4,2 - 5 3 - - W 1027,6 0 0,0
22.11.2020 20:00:00 8,5 4,9 - 8 4 - - W 1027,4 0 0,0
22.11.2020 19:00:00 8,6 5,1 - 5 3 - - W 1027,2 0 0,0
22.11.2020 18:00:00 8,9 4,9 - 5 3 - - W 1027,1 0 0,0
22.11.2020 17:00:00 8,2 5,5 - 4 2 - - NW 1026,7 0 0,0
22.11.2020 16:00:00 9,5 4,9 - 5 3 - - WNW 1026,2 30 0,0
22.11.2020 15:00:00 11,5 5,9 - 8 4 - - WNW 1025,9 54 0,0
22.11.2020 14:00:00 11,1 5,8 - 8 4 - - WNW 1026,4 24 0,0
22.11.2020 13:00:00 11,2 5,6 - 8 4 - - NW 1026,9 18 0,0
22.11.2020 12:00:00 10,7 6,1 - 9 5 - - WNW 1027,1 0 0,0
22.11.2020 11:00:00 10,6 7,3 - 8 4 - - NNW 1027,3 0 0,0
22.11.2020 10:00:00 10,6 7,8 - 8 4 - - WNW 1027,2 0 0,0
22.11.2020 09:00:00 10,2 8,0 10,0 5 3 - - WNW 1027,0 0 0,0
22.11.2020 08:00:00 10,0 8,0 - 8 4 - - WNW 1026,7 0 0,2
22.11.2020 07:00:00 10,0 8,4 - 9 5 - - WNW 1026,3 0 0,0
22.11.2020 06:00:00 10,5 9,9 - 5 3 - - WSW 1025,8 0 0,0
22.11.2020 05:00:00 10,6 9,8 - 8 4 - - WSW 1025,6 0 0,0
22.11.2020 04:00:00 10,8 9,6 - 9 5 - - WSW 1025,5 0 0,0
22.11.2020 03:00:00 10,9 9,4 - 9 5 - - WSW 1025,4 0 0,0
22.11.2020 02:00:00 11,1 9,1 - 11 6 - - SW 1025,2 0 0,0
22.11.2020 01:00:00 10,9 9,1 - 13 7 - - SW 1025,4 0 0,0
22.11.2020 00:00:00 10,9 8,9 - 13 7 - - SW 1025,2 - 0,0
21.11.2020 23:00:00 10,8 8,8 - 15 8 - - SW 1025,3 0 0,0
21.11.2020 22:00:00 10,5 8,6 - 16 9 - - SW 1025,6 0 0,0
21.11.2020 21:00:00 10,5 8,3 - 16 9 - - SW 1026,1 0 0,0
21.11.2020 20:00:00 10,8 8,3 - 16 9 - - SW 1026,4 0 0,0
21.11.2020 19:00:00 11,1 8,2 - 15 8 - - SW 1026,5 0 0,0
21.11.2020 18:00:00 11,2 8,0 - 16 9 - - SW 1026,3 0 0,0
21.11.2020 17:00:00 11,5 7,7 - 13 7 - - WSW 1026,4 0 0,0
21.11.2020 16:00:00 11,6 7,8 - 13 7 - - WSW 1026,4 0 0,0
21.11.2020 15:00:00 12,0 7,6 - 16 9 - - W 1026,4 0 0,0
21.11.2020 14:00:00 12,2 7,3 - 18 10 - - WSW - 0 0,0
21.11.2020 13:00:00 12,5 7,6 - 22 12 - - WSW 1026,6 0 0,0
21.11.2020 12:00:00 12,6 7,3 - 22 12 - - WSW 1026,7 0 0,0
21.11.2020 11:00:00 12,0 7,5 - 18 10 - - WSW 1027,6 0 0,0
21.11.2020 10:00:00 11,4 8,2 - 15 8 - - WSW 1027,8 0 0,0
21.11.2020 09:00:00 10,9 8,4 9,4 16 9 - - WSW 1027,7 0 0,0
21.11.2020 08:00:00 10,5 8,4 - 13 7 - - SW 1028,0 0 0,0
21.11.2020 07:00:00 9,9 8,0 - 15 8 - - SW 1027,9 0 0,0
21.11.2020 06:00:00 10,5 8,4 - 21 11 - - WSW 1028,1 0 0,0
21.11.2020 05:00:00 10,6 8,0 - 18 10 - - SW 1027,9 0 0,0
21.11.2020 04:00:00 10,4 7,8 - 18 10 - - WSW 1027,9 0 0,0
21.11.2020 03:00:00 10,2 8,1 - 15 8 - - SW 1027,9 0 0,0
21.11.2020 02:00:00 10,1 8,5 - 13 7 - - SW 1028,5 0 0,0
21.11.2020 01:00:00 10,7 9,3 - 16 9 - - WSW 1028,9 0 0,0
21.11.2020 00:00:00 10,7 9,6 - 13 7 - - SW 1029,1 - 0,0
20.11.2020 23:00:00 10,7 9,6 - 15 8 - - WSW 1029,9 0 0,0
20.11.2020 22:00:00 10,3 9,6 - 16 9 - - SW 1030,1 0 0,0
20.11.2020 21:00:00 9,9 9,3 - 15 8 - - SW 1030,6 0 0,0
20.11.2020 20:00:00 10,0 9,1 - 15 8 - - SW 1030,8 0 0,0
20.11.2020 19:00:00 9,7 9,2 - 13 7 - - SW 1031,0 0 0,0
20.11.2020 18:00:00 8,7 8,4 - 9 5 - - S 1031,5 0 0,2
20.11.2020 17:00:00 8,3 7,8 - 13 7 - - S 1032,0 0 0,4
20.11.2020 16:00:00 8,7 7,1 - 11 6 - - SSW 1032,3 0 0,0
20.11.2020 15:00:00 8,7 6,5 - 11 6 - - SSW 1032,9 0 0,0
20.11.2020 14:00:00 8,5 5,7 - 11 6 - - S 1033,3 0 0,0
20.11.2020 13:00:00 7,6 4,8 - 11 6 - - SSW 1034,1 0 0,0
20.11.2020 12:00:00 6,4 4,3 - 4 2 - - S 1035,0 0 0,0
20.11.2020 11:00:00 4,8 3,5 - 4 2 - - SW 1035,8 0 0,0
20.11.2020 10:00:00 3,3 2,9 - 5 3 - - SSW 1035,7 0 0,2
20.11.2020 09:00:00 1,4 1,3 8,4 2 1 - - ESE 1035,7 6 0,0
20.11.2020 08:00:00 -0,4 -0,6 - 2 1 - - ENE 1035,9 0 0,0
20.11.2020 07:00:00 -1,6 -1,9 - 2 1 - - SSW 1035,3 0 0,0
20.11.2020 06:00:00 -1,4 -1,7 - 2 1 - - SSE 1035,7 0 0,0
20.11.2020 05:00:00 -1,3 -1,7 - 4 2 - - SSE 1035,4 0 0,0
20.11.2020 04:00:00 0,0 -0,4 - 5 3 - - SW 1035,5 0 0,0
20.11.2020 03:00:00 0,5 0,1 - 5 3 - - SSE 1035,8 0 0,0
20.11.2020 02:00:00 0,9 0,3 - 2 1 - - S 1036,0 0 0,0
20.11.2020 01:00:00 2,0 1,2 - 2 1 - - ESE 1036,0 0 0,0
20.11.2020 00:00:00 3,2 2,5 - 8 4 - - W 1035,6 - 0,0
19.11.2020 23:00:00 3,2 1,9 - 5 3 - - WNW 1036,1 0 0,0
19.11.2020 22:00:00 3,5 2,6 - 9 5 - - WNW 1035,8 0 0,0
19.11.2020 21:00:00 2,4 1,6 - 4 2 - - NW 1034,5 0 0,0
19.11.2020 20:00:00 3,7 2,6 - 8 4 - - W 1034,0 0 0,0
19.11.2020 19:00:00 4,1 2,8 - 4 2 - - W 1033,2 0 0,0
19.11.2020 18:00:00 6,1 3,9 - 9 5 - - WNW 1033,4 0 0,0
19.11.2020 17:00:00 6,9 4,9 - 13 7 - - NW 1032,8 0 0,0
19.11.2020 16:00:00 7,1 4,9 - 11 6 - - NNW 1030,0 42 0,0
19.11.2020 15:00:00 7,8 5,6 - 15 8 - - NNW 1030,2 24 0,2
19.11.2020 14:00:00 8,2 6,5 - 16 9 - - N 1029,0 0 0,2
19.11.2020 13:00:00 9,0 7,4 - 15 8 - - NW 1027,5 0 0,8
19.11.2020 12:00:00 9,1 7,5 - 8 4 - - NW 1025,8 0 0,4
19.11.2020 11:00:00 9,8 6,2 - 21 11 - - WNW 1024,9 0 0,0
19.11.2020 10:00:00 8,8 6,3 - 11 6 - - W 1023,8 0 0,2
19.11.2020 09:00:00 9,4 4,5 10,2 21 11 - - W 1022,5 0 0,0
19.11.2020 08:00:00 9,3 3,9 - 15 8 - - W 1021,3 0 0,0
19.11.2020 07:00:00 9,4 3,9 - 21 11 - - W 1020,1 0 0,0
19.11.2020 06:00:00 9,5 4,3 - 18 10 - - W 1019,8 0 0,0
19.11.2020 05:00:00 9,2 4,8 - 18 10 - - WSW 1018,9 0 0,0
19.11.2020 04:00:00 9,2 4,8 - 21 11 - - WSW 1018,0 0 0,0
19.11.2020 03:00:00 8,4 4,1 - 18 10 - - WSW 1018,4 0 0,0
19.11.2020 02:00:00 7,9 3,7 - 18 10 - - SW 1018,2 0 0,0
19.11.2020 01:00:00 8,0 3,5 - 18 10 - - SW 1018,3 0 0,0
19.11.2020 00:00:00 8,0 3,8 - 21 11 - - WSW 1018,5 - 0,0
18.11.2020 23:00:00 8,3 3,8 - 15 8 - - WSW 1018,4 0 0,0
18.11.2020 22:00:00 9,1 3,9 - 15 8 - - WSW 1017,9 0 0,0
18.11.2020 21:00:00 10,1 3,8 - 22 12 - - W 1017,1 0 0,0
18.11.2020 20:00:00 10,8 5,3 - 16 9 - - W 1016,3 0 0,0
18.11.2020 19:00:00 11,3 7,8 - 21 11 48 26 W 1015,3 0 0,0
18.11.2020 18:00:00 14,3 13,4 - 18 10 50 27 SW 1013,4 0 0,2
18.11.2020 17:00:00 14,3 13,4 - 21 11 - - SW 1013,2 0 0,0
18.11.2020 16:00:00 13,4 12,2 - 16 9 - - SSW 1013,4 0 0,0
18.11.2020 15:00:00 13,2 10,9 - 22 12 - - SSW 1013,8 0 0,0
18.11.2020 14:00:00 14,8 9,2 - 24 13 - - SSW 1013,9 0 0,0
18.11.2020 13:00:00 15,1 8,5 - 24 13 46 25 SW 1014,6 36 0,0
18.11.2020 12:00:00 14,5 9,0 - 21 11 46 25 SSW 1015,3 24 0,0
18.11.2020 11:00:00 14,5 9,1 - 22 12 - - SSW 1016,3 54 0,0
18.11.2020 10:00:00 13,4 9,6 - 24 13 - - S 1017,0 60 0,0
18.11.2020 09:00:00 12,0 9,9 11,2 22 12 - - S 1017,8 54 0,0
18.11.2020 08:00:00 10,7 9,5 - 13 7 - - S 1018,2 0 0,0
18.11.2020 07:00:00 11,4 9,9 - 15 8 - - S 1018,6 0 0,0
18.11.2020 06:00:00 11,8 9,8 - 13 7 - - S 1019,2 0 0,0
18.11.2020 05:00:00 12,0 10,0 - 13 7 - - SSW 1019,7 0 0,0
18.11.2020 04:00:00 12,3 9,9 - 15 8 - - SSW 1020,0 0 0,0

tt = Température de l'air
td = dewpoint
tt -20cm = Température de l'air -20cm
ff = Vitesse du vent
fx = gusts
dd = Direction du vent
ppp = reduced air pressure
sd = Ensoleillement
rr = Quantités de précipitations

stations d'obs. à proximité